sensor_id;sensor_type;location;lat;lon;timestamp;pressure;altitude;pressure_sealevel;temperature;humidity
21273;BME280;36726;52.328;10.552;2022-08-20T00:01:07;100380.13;;;19.89;89.44
21273;BME280;36726;52.328;10.552;2022-08-20T00:03:40;100375.72;;;19.87;89.64
21273;BME280;36726;52.328;10.552;2022-08-20T00:06:13;100375.81;;;19.84;89.80
21273;BME280;36726;52.328;10.552;2022-08-20T00:08:41;100376.72;;;19.83;90.29
21273;BME280;36726;52.328;10.552;2022-08-20T00:11:10;100381.25;;;19.81;90.62
21273;BME280;36726;52.328;10.552;2022-08-20T00:13:43;100384.88;;;19.80;90.87
21273;BME280;36726;52.328;10.552;2022-08-20T00:16:10;100388.47;;;19.79;91.13
21273;BME280;36726;52.328;10.552;2022-08-20T00:18:38;100387.66;;;19.77;91.11
21273;BME280;36726;52.328;10.552;2022-08-20T00:21:08;100394.88;;;19.75;91.59
21273;BME280;36726;52.328;10.552;2022-08-20T00:23:36;100393.97;;;19.74;91.78
21273;BME280;36726;52.328;10.552;2022-08-20T00:26:04;100393.13;;;19.72;91.91
21273;BME280;36726;52.328;10.552;2022-08-20T00:28:31;100390.44;;;19.72;92.10
21273;BME280;36726;52.328;10.552;2022-08-20T00:30:58;100387.84;;;19.69;92.23
21273;BME280;36726;52.328;10.552;2022-08-20T00:33:25;100395.00;;;19.69;92.11
21273;BME280;36726;52.328;10.552;2022-08-20T00:35:54;100391.50;;;19.67;92.17
21273;BME280;36726;52.328;10.552;2022-08-20T00:38:33;100392.44;;;19.66;92.07
21273;BME280;36726;52.328;10.552;2022-08-20T00:41:01;100396.84;;;19.67;92.13
21273;BME280;36726;52.328;10.552;2022-08-20T00:43:41;100394.25;;;19.63;92.47
21273;BME280;36726;52.328;10.552;2022-08-20T00:46:28;100387.13;;;19.62;92.67
21273;BME280;36726;52.328;10.552;2022-08-20T00:48:58;100388.06;;;19.61;92.62
21273;BME280;36726;52.328;10.552;2022-08-20T00:51:35;100394.31;;;19.60;92.78
21273;BME280;36726;52.328;10.552;2022-08-20T00:54:22;100402.47;;;19.57;93.01
21273;BME280;36726;52.328;10.552;2022-08-20T00:56:53;100408.78;;;19.56;93.29
21273;BME280;36726;52.328;10.552;2022-08-20T00:59:26;100409.66;;;19.55;93.26
21273;BME280;36726;52.328;10.552;2022-08-20T01:01:53;100407.00;;;19.55;93.64
21273;BME280;36726;52.328;10.552;2022-08-20T01:04:28;100412.34;;;19.55;93.58
21273;BME280;36726;52.328;10.552;2022-08-20T01:06:56;100407.75;;;19.60;93.86
21273;BME280;36726;52.328;10.552;2022-08-20T01:09:23;100416.63;;;19.62;93.73
21273;BME280;36726;52.328;10.552;2022-08-20T01:12:10;100420.97;;;19.68;93.80
21273;BME280;36726;52.328;10.552;2022-08-20T01:14:36;100415.53;;;19.71;93.74
21273;BME280;36726;52.328;10.552;2022-08-20T01:17:07;100408.34;;;19.72;93.67
21273;BME280;36726;52.328;10.552;2022-08-20T01:19:40;100410.19;;;19.70;93.32
21273;BME280;36726;52.328;10.552;2022-08-20T01:22:08;100414.75;;;19.68;93.44
21273;BME280;36726;52.328;10.552;2022-08-20T01:25:00;100406.69;;;19.66;93.65
21273;BME280;36726;52.328;10.552;2022-08-20T01:27:30;100408.53;;;19.66;93.52
21273;BME280;36726;52.328;10.552;2022-08-20T01:30:00;100408.53;;;19.66;93.76
21273;BME280;36726;52.328;10.552;2022-08-20T01:32:32;100403.16;;;19.66;93.70
21273;BME280;36726;52.328;10.552;2022-08-20T01:34:59;100396.91;;;19.65;93.52
21273;BME280;36726;52.328;10.552;2022-08-20T01:37:26;100403.22;;;19.62;93.66
21273;BME280;36726;52.328;10.552;2022-08-20T01:39:57;100388.97;;;19.60;94.03
21273;BME280;36726;52.328;10.552;2022-08-20T01:42:30;100400.63;;;19.59;94.18
21273;BME280;36726;52.328;10.552;2022-08-20T01:45:01;100397.94;;;19.59;94.38
21273;BME280;36726;52.328;10.552;2022-08-20T01:47:31;100400.63;;;19.59;94.65
21273;BME280;36726;52.328;10.552;2022-08-20T01:50:14;100399.69;;;19.60;94.83
21273;BME280;36726;52.328;10.552;2022-08-20T01:55:21;100402.50;;;19.56;95.29
21273;BME280;36726;52.328;10.552;2022-08-20T01:57:48;100407.03;;;19.54;95.79
21273;BME280;36726;52.328;10.552;2022-08-20T02:00:16;100399.97;;;19.51;96.30
21273;BME280;36726;52.328;10.552;2022-08-20T02:02:46;100409.84;;;19.49;96.50
21273;BME280;36726;52.328;10.552;2022-08-20T02:05:13;100404.50;;;19.48;96.81
21273;BME280;36726;52.328;10.552;2022-08-20T02:07:40;100408.06;;;19.48;96.98
21273;BME280;36726;52.328;10.552;2022-08-20T02:10:09;100414.38;;;19.47;97.05
21273;BME280;36726;52.328;10.552;2022-08-20T02:12:36;100410.84;;;19.45;97.04
21273;BME280;36726;52.328;10.552;2022-08-20T02:15:06;100410.00;;;19.43;97.11
21273;BME280;36726;52.328;10.552;2022-08-20T02:17:34;100411.88;;;19.40;97.04
21273;BME280;36726;52.328;10.552;2022-08-20T02:20:06;100408.41;;;19.36;97.13
21273;BME280;36726;52.328;10.552;2022-08-20T02:22:47;100405.81;;;19.33;97.18
21273;BME280;36726;52.328;10.552;2022-08-20T02:25:17;100412.13;;;19.31;97.23
21273;BME280;36726;52.328;10.552;2022-08-20T02:27:46;100412.13;;;19.29;97.36
21273;BME280;36726;52.328;10.552;2022-08-20T02:30:19;100409.50;;;19.28;97.36
21273;BME280;36726;52.328;10.552;2022-08-20T02:32:55;100404.13;;;19.28;97.47
21273;BME280;36726;52.328;10.552;2022-08-20T02:35:23;100392.50;;;19.27;97.48
21273;BME280;36726;52.328;10.552;2022-08-20T02:37:51;100405.88;;;19.29;97.63
21273;BME280;36726;52.328;10.552;2022-08-20T02:40:21;100417.47;;;19.31;97.62
21273;BME280;36726;52.328;10.552;2022-08-20T02:42:57;100419.22;;;19.32;97.88
21273;BME280;36726;52.328;10.552;2022-08-20T02:45:24;100417.44;;;19.32;97.89
21273;BME280;36726;52.328;10.552;2022-08-20T02:47:50;100427.25;;;19.33;98.02
21273;BME280;36726;52.328;10.552;2022-08-20T02:50:24;100436.13;;;19.35;98.15
21273;BME280;36726;52.328;10.552;2022-08-20T02:52:51;100427.25;;;19.33;97.93
21273;BME280;36726;52.328;10.552;2022-08-20T02:55:21;100430.00;;;19.29;97.93
21273;BME280;36726;52.328;10.552;2022-08-20T02:57:57;100431.03;;;19.23;97.58
21273;BME280;36726;52.328;10.552;2022-08-20T03:00:27;100432.06;;;19.18;97.49
21273;BME280;36726;52.328;10.552;2022-08-20T03:02:53;100431.25;;;19.14;97.53
21273;BME280;36726;52.328;10.552;2022-08-20T03:05:20;100434.94;;;19.10;97.69
21273;BME280;36726;52.328;10.552;2022-08-20T03:07:50;100430.59;;;19.06;97.68
21273;BME280;36726;52.328;10.552;2022-08-20T03:10:28;100441.34;;;19.03;97.82
21273;BME280;36726;52.328;10.552;2022-08-20T03:12:55;100442.31;;;19.01;98.15
21273;BME280;36726;52.328;10.552;2022-08-20T03:15:22;100441.47;;;18.99;98.45
21273;BME280;36726;52.328;10.552;2022-08-20T03:17:49;100444.13;;;19.00;98.75
21273;BME280;36726;52.328;10.552;2022-08-20T03:20:15;100442.31;;;19.01;98.78
21273;BME280;36726;52.328;10.552;2022-08-20T03:22:47;100436.13;;;18.99;98.75
21273;BME280;36726;52.328;10.552;2022-08-20T03:25:15;100439.78;;;18.95;98.86
21273;BME280;36726;52.328;10.552;2022-08-20T03:27:42;100448.81;;;18.91;99.01
21273;BME280;36726;52.328;10.552;2022-08-20T03:30:12;100441.78;;;18.85;99.23
21273;BME280;36726;52.328;10.552;2022-08-20T03:32:40;100439.19;;;18.82;99.36
21273;BME280;36726;52.328;10.552;2022-08-20T03:35:09;100432.13;;;18.78;99.25
21273;BME280;36726;52.328;10.552;2022-08-20T03:37:37;100433.09;;;18.74;99.42
21273;BME280;36726;52.328;10.552;2022-08-20T03:40:16;100446.66;;;18.68;99.55
21273;BME280;36726;52.328;10.552;2022-08-20T03:42:43;100437.81;;;18.63;99.61
21273;BME280;36726;52.328;10.552;2022-08-20T03:45:11;100437.88;;;18.60;99.72
21273;BME280;36726;52.328;10.552;2022-08-20T03:47:45;100442.47;;;18.55;99.78
21273;BME280;36726;52.328;10.552;2022-08-20T03:50:12;100444.28;;;18.53;99.86
21273;BME280;36726;52.328;10.552;2022-08-20T03:52:53;100436.34;;;18.50;100.00
21273;BME280;36726;52.328;10.552;2022-08-20T03:55:21;100433.69;;;18.47;100.00
21273;BME280;36726;52.328;10.552;2022-08-20T03:57:51;100435.56;;;18.43;100.00
21273;BME280;36726;52.328;10.552;2022-08-20T04:00:21;100436.53;;;18.41;100.00
21273;BME280;36726;52.328;10.552;2022-08-20T04:02:49;100433.84;;;18.41;100.00
21273;BME280;36726;52.328;10.552;2022-08-20T04:05:15;100440.06;;;18.40;100.00
21273;BME280;36726;52.328;10.552;2022-08-20T04:07:42;100434.72;;;18.40;100.00
21273;BME280;36726;52.328;10.552;2022-08-20T04:10:11;100438.31;;;18.39;100.00
21273;BME280;36726;52.328;10.552;2022-08-20T04:12:38;100441.00;;;18.39;100.00
21273;BME280;36726;52.328;10.552;2022-08-20T04:15:19;100447.25;;;18.38;100.00
21273;BME280;36726;52.328;10.552;2022-08-20T04:17:48;100457.06;;;18.39;100.00
21273;BME280;36726;52.328;10.552;2022-08-20T04:20:18;100450.78;;;18.43;100.00
21273;BME280;36726;52.328;10.552;2022-08-20T04:22:49;100455.16;;;18.45;100.00
21273;BME280;36726;52.328;10.552;2022-08-20T04:25:29;100449.75;;;18.48;100.00
21273;BME280;36726;52.328;10.552;2022-08-20T04:28:04;100455.91;;;18.53;100.00
21273;BME280;36726;52.328;10.552;2022-08-20T04:30:31;100456.72;;;18.57;100.00
21273;BME280;36726;52.328;10.552;2022-08-20T04:32:59;100453.97;;;18.60;100.00
21273;BME280;36726;52.328;10.552;2022-08-20T04:35:26;100448.56;;;18.61;100.00
21273;BME280;36726;52.328;10.552;2022-08-20T04:38:01;100454.72;;;18.65;100.00
21273;BME280;36726;52.328;10.552;2022-08-20T04:40:28;100452.88;;;18.70;100.00
21273;BME280;36726;52.328;10.552;2022-08-20T04:43:14;100464.34;;;18.75;100.00
21273;BME280;36726;52.328;10.552;2022-08-20T04:45:40;100457.09;;;18.80;100.00
21273;BME280;36726;52.328;10.552;2022-08-20T04:48:07;100451.66;;;18.83;100.00
21273;BME280;36726;52.328;10.552;2022-08-20T04:50:43;100456.03;;;18.87;100.00
21273;BME280;36726;52.328;10.552;2022-08-20T04:53:11;100455.06;;;18.91;100.00
21273;BME280;36726;52.328;10.552;2022-08-20T04:55:40;100461.22;;;18.95;100.00
21273;BME280;36726;52.328;10.552;2022-08-20T04:58:17;100459.41;;;18.97;100.00
21273;BME280;36726;52.328;10.552;2022-08-20T05:00:50;100464.72;;;18.98;100.00
21273;BME280;36726;52.328;10.552;2022-08-20T05:03:18;100467.31;;;19.01;100.00
21273;BME280;36726;52.328;10.552;2022-08-20T05:05:45;100465.44;;;19.06;100.00
21273;BME280;36726;52.328;10.552;2022-08-20T05:08:13;100470.63;;;19.12;100.00
21273;BME280;36726;52.328;10.552;2022-08-20T05:10:46;100471.44;;;19.16;100.00
21273;BME280;36726;52.328;10.552;2022-08-20T05:13:12;100476.72;;;19.20;100.00
21273;BME280;36726;52.328;10.552;2022-08-20T05:15:39;100465.00;;;19.24;100.00
21273;BME280;36726;52.328;10.552;2022-08-20T05:18:07;100467.63;;;19.26;100.00
21273;BME280;36726;52.328;10.552;2022-08-20T05:20:37;100468.50;;;19.26;100.00
21273;BME280;36726;52.328;10.552;2022-08-20T05:23:08;100470.28;;;19.27;100.00
21273;BME280;36726;52.328;10.552;2022-08-20T05:25:36;100474.75;;;19.27;100.00
21273;BME280;36726;52.328;10.552;2022-08-20T05:28:12;100472.03;;;19.28;100.00
21273;BME280;36726;52.328;10.552;2022-08-20T05:30:44;100473.81;;;19.29;100.00
21273;BME280;36726;52.328;10.552;2022-08-20T05:33:14;100480.91;;;19.33;100.00
21273;BME280;36726;52.328;10.552;2022-08-20T05:35:43;100480.81;;;19.36;100.00
21273;BME280;36726;52.328;10.552;2022-08-20T05:38:11;100485.22;;;19.39;100.00
21273;BME280;36726;52.328;10.552;2022-08-20T05:40:39;100482.44;;;19.43;100.00
21273;BME280;36726;52.328;10.552;2022-08-20T05:43:07;100486.81;;;19.47;100.00
21273;BME280;36726;52.328;10.552;2022-08-20T05:45:35;100488.50;;;19.51;100.00
21273;BME280;36726;52.328;10.552;2022-08-20T05:48:07;100483.84;;;19.58;100.00
21273;BME280;36726;52.328;10.552;2022-08-20T05:50:34;100489.97;;;19.63;100.00
21273;BME280;36726;52.328;10.552;2022-08-20T05:53:01;100488.06;;;19.68;100.00
21273;BME280;36726;52.328;10.552;2022-08-20T05:55:28;100488.81;;;19.75;100.00
21273;BME280;36726;52.328;10.552;2022-08-20T05:57:59;100495.81;;;19.80;100.00
21273;BME280;36726;52.328;10.552;2022-08-20T06:00:28;100492.09;;;19.86;100.00
21273;BME280;36726;52.328;10.552;2022-08-20T06:02:55;100499.91;;;19.93;99.48
21273;BME280;36726;52.328;10.552;2022-08-20T06:05:59;100500.63;;;20.01;98.95
21273;BME280;36726;52.328;10.552;2022-08-20T06:08:26;100500.47;;;20.07;98.48
21273;BME280;36726;52.328;10.552;2022-08-20T06:10:52;100504.78;;;20.13;98.24
21273;BME280;36726;52.328;10.552;2022-08-20T06:13:19;100500.19;;;20.18;97.13
21273;BME280;36726;52.328;10.552;2022-08-20T06:15:46;100500.00;;;20.24;96.29
21273;BME280;36726;52.328;10.552;2022-08-20T06:18:13;100504.38;;;20.28;95.19
21273;BME280;36726;52.328;10.552;2022-08-20T06:20:54;100513.19;;;20.34;95.04
21273;BME280;36726;52.328;10.552;2022-08-20T06:23:21;100510.44;;;20.36;93.75
21273;BME280;36726;52.328;10.552;2022-08-20T06:25:51;100510.34;;;20.39;93.02
21273;BME280;36726;52.328;10.552;2022-08-20T06:28:17;100513.03;;;20.39;91.93
21273;BME280;36726;52.328;10.552;2022-08-20T06:30:44;100511.28;;;20.38;91.88
21273;BME280;36726;52.328;10.552;2022-08-20T06:33:10;100519.34;;;20.38;91.66
21273;BME280;36726;52.328;10.552;2022-08-20T06:35:37;100526.56;;;20.36;90.79
21273;BME280;36726;52.328;10.552;2022-08-20T06:38:04;100523.03;;;20.34;90.76
21273;BME280;36726;52.328;10.552;2022-08-20T06:40:31;100518.53;;;20.34;90.62
21273;BME280;36726;52.328;10.552;2022-08-20T06:43:00;100520.28;;;20.35;90.76
21273;BME280;36726;52.328;10.552;2022-08-20T06:45:29;100519.34;;;20.36;89.99
21273;BME280;36726;52.328;10.552;2022-08-20T06:47:59;100532.78;;;20.38;90.04
21273;BME280;36726;52.328;10.552;2022-08-20T06:50:32;100526.56;;;20.36;89.83
21273;BME280;36726;52.328;10.552;2022-08-20T06:53:15;100520.34;;;20.34;89.09
21273;BME280;36726;52.328;10.552;2022-08-20T06:55:46;100523.97;;;20.31;88.93
21273;BME280;36726;52.328;10.552;2022-08-20T06:58:14;100525.75;;;20.32;88.96
21273;BME280;36726;52.328;10.552;2022-08-20T07:01:01;100523.03;;;20.34;89.35
21273;BME280;36726;52.328;10.552;2022-08-20T07:03:37;100515.81;;;20.36;89.18
21273;BME280;36726;52.328;10.552;2022-08-20T07:06:05;100511.28;;;20.36;89.21
21273;BME280;36726;52.328;10.552;2022-08-20T07:08:31;100512.97;;;20.40;89.41
21273;BME280;36726;52.328;10.552;2022-08-20T07:10:58;100514.66;;;20.44;89.55
21273;BME280;36726;52.328;10.552;2022-08-20T07:13:25;100510.00;;;20.51;89.50
21273;BME280;36726;52.328;10.552;2022-08-20T07:15:52;100518.72;;;20.59;89.45
21273;BME280;36726;52.328;10.552;2022-08-20T07:18:21;100514.94;;;20.66;89.25
21273;BME280;36726;52.328;10.552;2022-08-20T07:20:54;100516.41;;;20.76;89.02
21273;BME280;36726;52.328;10.552;2022-08-20T07:23:26;100519.66;;;20.87;88.25
21273;BME280;36726;52.328;10.552;2022-08-20T07:25:53;100529.16;;;21.00;88.15
21273;BME280;36726;52.328;10.552;2022-08-20T07:28:24;100531.41;;;21.15;87.80
21273;BME280;36726;52.328;10.552;2022-08-20T07:30:51;100530.19;;;21.25;86.69
21273;BME280;36726;52.328;10.552;2022-08-20T07:33:39;100525.44;;;21.33;86.15
21273;BME280;36726;52.328;10.552;2022-08-20T07:36:08;100529.66;;;21.42;85.63
21273;BME280;36726;52.328;10.552;2022-08-20T07:38:36;100536.47;;;21.52;84.71
21273;BME280;36726;52.328;10.552;2022-08-20T07:41:05;100537.97;;;21.62;84.03
21273;BME280;36726;52.328;10.552;2022-08-20T07:43:33;100538.63;;;21.68;83.07
21273;BME280;36726;52.328;10.552;2022-08-20T07:46:01;100527.88;;;21.68;82.15
21273;BME280;36726;52.328;10.552;2022-08-20T07:48:29;100543.09;;;21.70;82.06
21273;BME280;36726;52.328;10.552;2022-08-20T07:50:59;100540.25;;;21.74;82.16
21273;BME280;36726;52.328;10.552;2022-08-20T07:53:26;100548.13;;;21.82;81.39
21273;BME280;36726;52.328;10.552;2022-08-20T07:55:59;100549.72;;;21.87;80.50
21273;BME280;36726;52.328;10.552;2022-08-20T07:58:26;100546.78;;;21.95;80.64
21273;BME280;36726;52.328;10.552;2022-08-20T08:00:59;100545.47;;;22.06;80.91
21273;BME280;36726;52.328;10.552;2022-08-20T08:03:26;100546.88;;;22.18;80.12
21273;BME280;36726;52.328;10.552;2022-08-20T08:06:14;100551.72;;;22.33;79.59
21273;BME280;36726;52.328;10.552;2022-08-20T08:08:44;100549.28;;;22.50;79.12
21273;BME280;36726;52.328;10.552;2022-08-20T08:11:11;100545.31;;;22.61;78.72
21273;BME280;36726;52.328;10.552;2022-08-20T08:13:39;100555.66;;;22.74;77.93
21273;BME280;36726;52.328;10.552;2022-08-20T08:16:08;100558.75;;;22.86;76.90
21273;BME280;36726;52.328;10.552;2022-08-20T08:18:41;100547.84;;;22.89;76.06
21273;BME280;36726;52.328;10.552;2022-08-20T08:21:09;100560.41;;;22.90;75.75
21273;BME280;36726;52.328;10.552;2022-08-20T08:23:39;100560.47;;;22.89;75.96
21273;BME280;36726;52.328;10.552;2022-08-20T08:26:11;100563.25;;;22.87;75.72
21273;BME280;36726;52.328;10.552;2022-08-20T08:28:44;100566.84;;;22.86;75.78
21273;BME280;36726;52.328;10.552;2022-08-20T08:31:12;100570.50;;;22.85;75.74
21273;BME280;36726;52.328;10.552;2022-08-20T08:33:39;100577.72;;;22.85;75.92
21273;BME280;36726;52.328;10.552;2022-08-20T08:36:12;100575.91;;;22.85;75.96
21273;BME280;36726;52.328;10.552;2022-08-20T08:38:41;100573.91;;;22.90;76.05
21273;BME280;36726;52.328;10.552;2022-08-20T08:41:27;100574.66;;;22.94;75.71
21273;BME280;36726;52.328;10.552;2022-08-20T08:44:01;100569.81;;;23.03;75.73
21273;BME280;36726;52.328;10.552;2022-08-20T08:46:31;100571.03;;;23.18;75.86
21273;BME280;36726;52.328;10.552;2022-08-20T08:49:00;100575.03;;;23.31;75.57
21273;BME280;36726;52.328;10.552;2022-08-20T08:51:35;100575.50;;;23.42;74.45
21273;BME280;36726;52.328;10.552;2022-08-20T08:54:03;100578.88;;;23.47;74.21
21273;BME280;36726;52.328;10.552;2022-08-20T08:56:34;100577.84;;;23.51;74.02
21273;BME280;36726;52.328;10.552;2022-08-20T08:59:04;100583.13;;;23.54;74.07
21273;BME280;36726;52.328;10.552;2022-08-20T09:01:32;100578.50;;;23.57;73.69
21273;BME280;36726;52.328;10.552;2022-08-20T09:04:21;100585.41;;;23.64;73.30
21273;BME280;36726;52.328;10.552;2022-08-20T09:06:49;100588.78;;;23.70;72.93
21273;BME280;36726;52.328;10.552;2022-08-20T09:09:23;100591.06;;;23.80;72.36
21273;BME280;36726;52.328;10.552;2022-08-20T09:11:55;100587.28;;;23.84;71.47
21273;BME280;36726;52.328;10.552;2022-08-20T09:14:22;100591.66;;;23.87;71.26
21273;BME280;36726;52.328;10.552;2022-08-20T09:16:50;100597.06;;;23.87;71.30
21273;BME280;36726;52.328;10.552;2022-08-20T09:19:19;100597.13;;;23.85;71.69
21273;BME280;36726;52.328;10.552;2022-08-20T09:21:46;100595.09;;;23.92;71.65
21273;BME280;36726;52.328;10.552;2022-08-20T09:24:13;100592.19;;;23.96;70.26
21273;BME280;36726;52.328;10.552;2022-08-20T09:26:40;100588.06;;;24.09;70.65
21273;BME280;36726;52.328;10.552;2022-08-20T09:29:06;100590.06;;;24.26;70.01
21273;BME280;36726;52.328;10.552;2022-08-20T09:31:34;100591.34;;;24.37;69.54
21273;BME280;36726;52.328;10.552;2022-08-20T09:34:03;100590.00;;;24.47;69.69
21273;BME280;36726;52.328;10.552;2022-08-20T09:36:30;100588.56;;;24.59;69.10
21273;BME280;36726;52.328;10.552;2022-08-20T09:38:58;100594.13;;;24.56;68.04
21273;BME280;36726;52.328;10.552;2022-08-20T09:41:25;100597.78;;;24.55;68.64
21273;BME280;36726;52.328;10.552;2022-08-20T09:43:51;100590.09;;;24.66;68.82
21273;BME280;36726;52.328;10.552;2022-08-20T09:46:18;100590.63;;;24.74;68.39
21273;BME280;36726;52.328;10.552;2022-08-20T09:48:52;100605.72;;;24.80;68.67
21273;BME280;36726;52.328;10.552;2022-08-20T09:51:19;100606.72;;;24.77;68.66
21273;BME280;36726;52.328;10.552;2022-08-20T09:53:46;100599.28;;;24.62;67.62
21273;BME280;36726;52.328;10.552;2022-08-20T09:56:14;100601.00;;;24.43;68.49
21273;BME280;36726;52.328;10.552;2022-08-20T09:58:49;100600.59;;;24.32;69.22
21273;BME280;36726;52.328;10.552;2022-08-20T10:01:18;100603.75;;;24.21;68.66
21273;BME280;36726;52.328;10.552;2022-08-20T10:03:46;100600.13;;;24.22;68.91
21273;BME280;36726;52.328;10.552;2022-08-20T10:06:17;100595.88;;;24.37;68.87
21273;BME280;36726;52.328;10.552;2022-08-20T10:08:46;100600.75;;;24.49;68.00
21273;BME280;36726;52.328;10.552;2022-08-20T10:11:13;100595.75;;;24.60;67.35
21273;BME280;36726;52.328;10.552;2022-08-20T10:13:40;100592.78;;;24.66;65.62
21273;BME280;36726;52.328;10.552;2022-08-20T10:16:06;100601.31;;;24.77;66.89
21273;BME280;36726;52.328;10.552;2022-08-20T10:18:34;100595.56;;;24.85;65.44
21273;BME280;36726;52.328;10.552;2022-08-20T10:21:02;100602.59;;;24.89;65.50
21273;BME280;36726;52.328;10.552;2022-08-20T10:23:28;100604.16;;;24.94;64.89
21273;BME280;36726;52.328;10.552;2022-08-20T10:25:55;100605.44;;;25.06;65.78
21273;BME280;36726;52.328;10.552;2022-08-20T10:28:22;100604.41;;;25.08;64.90
21273;BME280;36726;52.328;10.552;2022-08-20T10:30:48;100606.38;;;25.05;64.63
21273;BME280;36726;52.328;10.552;2022-08-20T10:33:15;100600.88;;;25.06;65.13
21273;BME280;36726;52.328;10.552;2022-08-20T10:35:41;100603.25;;;25.14;63.93
21273;BME280;36726;52.328;10.552;2022-08-20T10:38:08;100604.13;;;25.14;63.96
21273;BME280;36726;52.328;10.552;2022-08-20T10:40:34;100599.28;;;25.21;63.49
21273;BME280;36726;52.328;10.552;2022-08-20T10:43:01;100602.66;;;25.26;63.14
21273;BME280;36726;52.328;10.552;2022-08-20T10:45:28;100598.47;;;25.39;63.07
21273;BME280;36726;52.328;10.552;2022-08-20T10:47:58;100602.44;;;25.50;61.76
21273;BME280;36726;52.328;10.552;2022-08-20T10:50:25;100591.16;;;25.59;61.59
21273;BME280;36726;52.328;10.552;2022-08-20T10:52:56;100601.63;;;25.67;61.72
21273;BME280;36726;52.328;10.552;2022-08-20T10:55:23;100594.72;;;25.79;61.70
21273;BME280;36726;52.328;10.552;2022-08-20T10:57:49;100589.50;;;25.93;61.54
21273;BME280;36726;52.328;10.552;2022-08-20T11:00:17;100600.75;;;26.02;61.06
21273;BME280;36726;52.328;10.552;2022-08-20T11:02:44;100599.81;;;26.03;59.87
21273;BME280;36726;52.328;10.552;2022-08-20T11:05:11;100595.94;;;26.09;60.21
21273;BME280;36726;52.328;10.552;2022-08-20T11:07:40;100597.25;;;26.19;60.27
21273;BME280;36726;52.328;10.552;2022-08-20T11:10:24;100595.00;;;26.27;59.42
21273;BME280;36726;52.328;10.552;2022-08-20T11:12:50;100593.69;;;26.35;60.36
21273;BME280;36726;52.328;10.552;2022-08-20T11:15:17;100594.41;;;26.39;59.25
21273;BME280;36726;52.328;10.552;2022-08-20T11:17:44;100598.53;;;26.46;59.67
21273;BME280;36726;52.328;10.552;2022-08-20T11:20:13;100591.66;;;26.56;59.93
21273;BME280;36726;52.328;10.552;2022-08-20T11:22:40;100591.09;;;26.66;59.59
21273;BME280;36726;52.328;10.552;2022-08-20T11:25:07;100584.44;;;26.74;58.74
21273;BME280;36726;52.328;10.552;2022-08-20T11:27:41;100597.03;;;26.75;58.33
21273;BME280;36726;52.328;10.552;2022-08-20T11:30:11;100598.88;;;26.74;58.15
21273;BME280;36726;52.328;10.552;2022-08-20T11:32:39;100594.69;;;26.67;58.23
21273;BME280;36726;52.328;10.552;2022-08-20T11:35:06;100590.63;;;26.76;58.10
21273;BME280;36726;52.328;10.552;2022-08-20T11:37:55;100595.03;;;26.78;57.20
21273;BME280;36726;52.328;10.552;2022-08-20T11:40:22;100590.72;;;26.91;57.50
21273;BME280;36726;52.328;10.552;2022-08-20T11:42:49;100594.03;;;27.13;57.07
21273;BME280;36726;52.328;10.552;2022-08-20T11:45:36;100598.25;;;27.19;56.18
21273;BME280;36726;52.328;10.552;2022-08-20T11:48:03;100590.66;;;27.08;56.93
21273;BME280;36726;52.328;10.552;2022-08-20T11:50:30;100591.53;;;26.93;57.05
21273;BME280;36726;52.328;10.552;2022-08-20T11:52:57;100593.25;;;26.94;56.47
21273;BME280;36726;52.328;10.552;2022-08-20T11:55:26;100589.44;;;26.98;57.46
21273;BME280;36726;52.328;10.552;2022-08-20T11:57:56;100594.69;;;27.01;56.50
21273;BME280;36726;52.328;10.552;2022-08-20T12:00:27;100592.75;;;27.03;56.83
21273;BME280;36726;52.328;10.552;2022-08-20T12:03:00;100599.47;;;27.13;56.72
21273;BME280;36726;52.328;10.552;2022-08-20T12:05:27;100601.50;;;27.25;56.69
21273;BME280;36726;52.328;10.552;2022-08-20T12:07:56;100600.13;;;27.34;56.10
21273;BME280;36726;52.328;10.552;2022-08-20T12:10:23;100597.25;;;27.37;55.44
21273;BME280;36726;52.328;10.552;2022-08-20T12:12:53;100596.72;;;27.30;55.48
21273;BME280;36726;52.328;10.552;2022-08-20T12:15:19;100595.06;;;27.11;55.28
21273;BME280;36726;52.328;10.552;2022-08-20T12:17:46;100592.53;;;26.91;55.85
21273;BME280;36726;52.328;10.552;2022-08-20T12:20:14;100599.34;;;26.82;56.87
21273;BME280;36726;52.328;10.552;2022-08-20T12:22:41;100601.09;;;26.83;57.00
21273;BME280;36726;52.328;10.552;2022-08-20T12:25:09;100600.78;;;26.89;56.73
21273;BME280;36726;52.328;10.552;2022-08-20T12:27:36;100602.81;;;27.01;56.49
21273;BME280;36726;52.328;10.552;2022-08-20T12:30:07;100594.69;;;27.01;56.19
21273;BME280;36726;52.328;10.552;2022-08-20T12:32:35;100600.03;;;27.03;56.64
21273;BME280;36726;52.328;10.552;2022-08-20T12:35:05;100602.03;;;26.99;56.79
21273;BME280;36726;52.328;10.552;2022-08-20T12:37:32;100596.59;;;26.99;56.29
21273;BME280;36726;52.328;10.552;2022-08-20T12:40:01;100600.47;;;26.95;56.42
21273;BME280;36726;52.328;10.552;2022-08-20T12:42:29;100599.97;;;26.87;55.93
21273;BME280;36726;52.328;10.552;2022-08-20T12:44:57;100598.56;;;26.80;56.23
21273;BME280;36726;52.328;10.552;2022-08-20T12:47:28;100598.63;;;26.79;56.28
21273;BME280;36726;52.328;10.552;2022-08-20T12:49:58;100611.81;;;26.69;57.05
21273;BME280;36726;52.328;10.552;2022-08-20T12:52:30;100630.81;;;25.98;58.32
21273;BME280;36726;52.328;10.552;2022-08-20T12:54:58;100629.22;;;25.38;60.42